KBHK Airport (Baker Muni) Information

FAA: BHK - ICAO: KBHK

KBHK Airport Location

State Montana
County Fallon
City Baker
KBHK Airport is 1 miles southeast of Baker, MT.
Latitude 46-20-47.8000N
Longitude 104-15-29.2000W
Elevation 2,980ft

KBHK Airport METARs

METAR KBHK 071851Z AUTO 10005KT 10SM FEW090 M09/M13 A3005 RMK AO2 SLP234 T10941128
Altimeter 30.05"
Temperature -9.4°C (15.1°F)
Wind 100° at 5KT
Clouds few at 9,000ft
Visibility 10.0mi
Time observed: 2022-12-07T18:51:00Z

KBHK Airport Details

Status Operational
Activation December 1938
Ownership Public
Usage Public
Chart BILLINGS
ATC on-site No
Beacon schedule sunset-sunrise
Beacon color clear green

KBHK Airport Contacts

Owner BAKER CITY AND FALLON CO
Owner address BOX 846, BAKER, MT 59313
Owner phone 406-778-2883
Manager JAMES T. BECKER
Manager address ROLLING SHOALS FARM, WILLIAMSVILLE, MO 63967
Manager phone 314-998-2248

KBHK Airport (Baker Muni) Radio Frequencies

KBHK (Airport) Radio Frequencies

UNICOM N/A
Common traffic advisory frequency (CTAF) 122.9